Time;durP1;ratioP1;P1;durP2;ratioP2;P2;SDS_P1;SDS_P2;PMS_P1;PMS_P2;Temp;Humidity;BMP_temperature;BMP_pressure;BME280_temperature;BME280_humidity;BME280_pressure;Samples;Min_cycle;Max_cycle;Signal;HPM_P1;HPM_P2
2023/02/06 00:01:37;;;;;;;6.90;2.22;;;21.00;35.20;;;;;;5055334;28;20460;-52
2023/02/06 00:04:03;;;;;;;8.88;2.63;;;21.00;35.20;;;;;;5057973;28;20037;-53
2023/02/06 00:06:29;;;;;;;6.32;2.08;;;21.00;35.20;;;;;;5060018;28;20032;-52
2023/02/06 00:08:55;;;;;;;7.30;2.35;;;21.00;35.20;;;;;;5040155;28;20417;-52
2023/02/06 00:11:21;;;;;;;7.75;2.53;;;21.00;35.20;;;;;;5061617;28;20048;-53
2023/02/06 00:13:48;;;;;;;8.13;2.80;;;21.00;35.10;;;;;;5060699;28;20054;-54
2023/02/06 00:16:21;;;;;;;7.10;2.50;;;21.00;35.10;;;;;;5061265;28;20032;-50
2023/02/06 00:18:47;;;;;;;6.82;1.95;;;21.00;35.10;;;;;;5059584;28;20356;-48
2023/02/06 00:21:14;;;;;;;8.60;2.63;;;21.00;35.10;;;;;;5061561;28;20064;-53
2023/02/06 00:23:40;;;;;;;9.18;2.58;;;21.00;35.10;;;;;;5041557;28;20463;-52
2023/02/06 00:26:06;;;;;;;10.27;2.72;;;20.90;35.00;;;;;;5046076;28;20033;-53
2023/02/06 00:28:33;;;;;;;7.72;2.30;;;20.90;35.00;;;;;;5058208;28;20033;-53
2023/02/06 00:30:59;;;;;;;7.00;2.65;;;20.90;35.10;;;;;;5039576;28;21630;-52
2023/02/06 00:33:24;;;;;;;6.90;2.85;;;20.90;35.10;;;;;;5057970;28;20025;-52
2023/02/06 00:35:50;;;;;;;8.23;2.60;;;20.90;35.00;;;;;;5041299;28;20025;-54
2023/02/06 00:38:16;;;;;;;7.03;2.28;;;20.90;35.00;;;;;;5060780;28;20028;-51
2023/02/06 00:40:43;;;;;;;7.97;2.35;;;20.90;35.00;;;;;;5060962;28;20041;-53
2023/02/06 00:43:09;;;;;;;7.90;2.50;;;20.90;35.00;;;;;;5060588;28;20052;-52
2023/02/06 00:45:35;;;;;;;7.88;2.92;;;20.90;35.00;;;;;;5040623;28;20028;-51
2023/02/06 00:48:01;;;;;;;7.13;2.10;;;20.90;35.00;;;;;;5058630;28;20379;-53
2023/02/06 00:50:27;;;;;;;6.50;2.13;;;20.90;35.00;;;;;;5039448;28;20463;-51
2023/02/06 00:52:53;;;;;;;8.80;2.30;;;20.80;35.00;;;;;;5048934;28;20132;-48
2023/02/06 00:55:18;;;;;;;8.05;2.45;;;20.80;35.00;;;;;;5059642;28;20123;-51
2023/02/06 00:57:44;;;;;;;6.60;2.13;;;20.80;34.90;;;;;;5058731;28;20039;-49
2023/02/06 01:00:13;;;;;;;6.97;2.30;;;20.80;34.90;;;;;;5062542;28;20044;-54
2023/02/06 01:02:39;;;;;;;5.75;2.05;;;20.80;34.90;;;;;;5044358;28;20107;-47
2023/02/06 01:05:05;;;;;;;6.97;2.00;;;20.80;34.90;;;;;;5058889;28;20108;-49
2023/02/06 01:07:37;;;;;;;6.22;2.35;;;20.80;34.90;;;;;;5062664;28;20040;-49
2023/02/06 01:10:03;;;;;;;6.65;2.47;;;20.80;34.90;;;;;;5044929;28;20028;-52
2023/02/06 01:12:29;;;;;;;7.75;2.40;;;20.80;34.90;;;;;;5068770;28;20112;-51
2023/02/06 01:14:55;;;;;;;5.75;2.20;;;20.80;35.00;;;;;;5028928;28;20132;-51
2023/02/06 01:17:21;;;;;;;6.10;2.42;;;20.80;35.00;;;;;;5029917;28;20654;-51
2023/02/06 01:19:46;;;;;;;6.78;2.28;;;20.80;35.00;;;;;;5017340;28;20036;-50
2023/02/06 01:22:12;;;;;;;5.82;2.20;;;20.80;35.00;;;;;;5023202;28;20049;-54
2023/02/06 01:24:38;;;;;;;6.15;2.20;;;20.80;35.00;;;;;;5019408;28;20025;-49
2023/02/06 01:27:04;;;;;;;7.15;2.38;;;20.80;35.00;;;;;;5030745;28;20029;-53
2023/02/06 01:29:29;;;;;;;6.40;1.98;;;20.80;34.90;;;;;;5024199;28;20376;-47
2023/02/06 01:31:55;;;;;;;6.90;2.20;;;20.70;34.90;;;;;;5021957;28;20025;-50
2023/02/06 01:34:21;;;;;;;7.70;2.53;;;20.70;34.90;;;;;;5021936;28;20025;-53
2023/02/06 01:36:47;;;;;;;9.75;2.60;;;20.70;34.90;;;;;;5022292;28;20034;-52
2023/02/06 01:39:13;;;;;;;8.05;2.28;;;20.70;35.00;;;;;;5022035;28;20048;-50
2023/02/06 01:41:39;;;;;;;7.05;2.28;;;20.70;35.00;;;;;;5023228;28;20045;-53
2023/02/06 01:44:17;;;;;;;5.38;2.03;;;20.70;35.00;;;;;;5021587;28;20025;-54
2023/02/06 01:46:45;;;;;;;6.88;2.30;;;20.70;35.00;;;;;;5021464;28;20064;-53
2023/02/06 01:49:33;;;;;;;6.50;1.95;;;20.70;35.00;;;;;;5025419;28;20018;-54
2023/02/06 01:52:06;;;;;;;6.82;2.00;;;20.70;35.00;;;;;;5024209;28;21531;-51
2023/02/06 01:54:32;;;;;;;5.05;1.83;;;20.70;34.90;;;;;;5025108;28;20084;-50
2023/02/06 01:57:02;;;;;;;7.00;2.22;;;20.70;34.90;;;;;;5023840;28;20104;-52
2023/02/06 01:59:28;;;;;;;4.70;1.80;;;20.70;34.80;;;;;;5022420;28;20086;-52
2023/02/06 02:01:54;;;;;;;6.57;2.30;;;20.60;34.80;;;;;;5021146;28;20042;-49
2023/02/06 02:04:23;;;;;;;5.05;1.90;;;20.60;34.80;;;;;;5020909;28;20030;-51
2023/02/06 02:07:05;;;;;;;6.78;2.15;;;20.60;34.80;;;;;;5021697;28;20025;-51
2023/02/06 02:09:33;;;;;;;5.30;1.70;;;20.60;34.80;;;;;;5021715;28;20029;-52
2023/02/06 02:12:00;;;;;;;7.57;2.53;;;20.60;34.80;;;;;;5022177;28;20025;-51
2023/02/06 02:14:26;;;;;;;7.53;1.95;;;20.60;34.80;;;;;;5043222;28;20048;-51
2023/02/06 02:17:16;;;;;;;5.80;2.03;;;20.60;34.80;;;;;;5046545;28;20117;-49
2023/02/06 02:20:37;;;;;;;6.00;1.60;;;20.60;34.80;;;;;;5044289;28;20083;-49
2023/02/06 02:23:12;;;;;;;6.43;1.73;;;20.60;34.80;;;;;;4963737;28;21173;-50
2023/02/06 02:26:03;;;;;;;5.25;2.08;;;20.60;34.80;;;;;;5060966;28;20068;-49
2023/02/06 02:28:55;;;;;;;4.72;1.58;;;20.60;34.90;;;;;;5062233;28;20036;-52
2023/02/06 02:31:51;;;;;;;6.47;1.92;;;20.50;34.80;;;;;;5047811;28;20102;-50
2023/02/06 02:34:34;;;;;;;5.20;1.83;;;20.50;34.80;;;;;;5040296;28;20366;-53
2023/02/06 02:37:14;;;;;;;5.17;1.70;;;20.50;34.80;;;;;;5060422;28;20390;-51
2023/02/06 02:39:59;;;;;;;6.15;1.80;;;20.50;34.80;;;;;;5040871;28;20127;-48
2023/02/06 02:42:50;;;;;;;5.38;2.03;;;20.50;34.80;;;;;;5059535;28;20082;-52
2023/02/06 02:45:34;;;;;;;5.47;1.83;;;20.50;34.80;;;;;;5049281;28;20179;-51
2023/02/06 02:48:26;;;;;;;6.63;2.05;;;20.50;34.80;;;;;;5043265;28;20025;-51
2023/02/06 02:50:54;;;;;;;5.75;2.33;;;20.50;34.80;;;;;;5059329;28;20032;-49
2023/02/06 02:53:20;;;;;;;5.28;1.90;;;20.50;34.80;;;;;;5045047;28;20036;-51
2023/02/06 02:55:47;;;;;;;6.25;1.98;;;20.50;34.80;;;;;;5064396;28;20074;-50
2023/02/06 02:58:18;;;;;;;5.90;1.83;;;20.50;34.80;;;;;;5047980;28;20075;-48
2023/02/06 03:00:48;;;;;;;5.57;1.80;;;20.50;34.80;;;;;;5046427;28;20033;-48
2023/02/06 03:03:17;;;;;;;6.50;2.03;;;20.50;34.80;;;;;;5067027;28;20037;-50
2023/02/06 03:06:07;;;;;;;5.88;2.35;;;20.50;34.80;;;;;;5043014;28;20115;-51
2023/02/06 03:08:51;;;;;;;6.43;2.30;;;20.40;34.80;;;;;;5040345;28;20055;-50
2023/02/06 03:11:22;;;;;;;7.63;1.95;;;20.50;34.90;;;;;;5066003;28;20024;-50
2023/02/06 03:13:58;;;;;;;6.70;2.00;;;20.40;34.90;;;;;;5043915;28;20079;-53
2023/02/06 03:16:49;;;;;;;5.22;2.00;;;20.40;34.90;;;;;;5042696;28;20032;-51
2023/02/06 03:19:25;;;;;;;5.82;2.08;;;20.40;34.90;;;;;;5037274;28;20474;-48
2023/02/06 03:21:51;;;;;;;5.75;2.15;;;20.40;34.90;;;;;;5042656;28;20033;-51
2023/02/06 03:24:29;;;;;;;6.30;2.25;;;20.40;34.90;;;;;;5038658;28;20076;-48
2023/02/06 03:27:01;;;;;;;8.05;2.28;;;20.40;34.90;;;;;;5066931;28;20112;-49
2023/02/06 03:29:29;;;;;;;4.97;1.90;;;20.40;34.90;;;;;;5064065;28;20113;-51
2023/02/06 03:32:06;;;;;;;6.32;1.92;;;20.40;34.90;;;;;;5058895;28;20021;-53
2023/02/06 03:34:43;;;;;;;7.80;2.00;;;20.40;34.90;;;;;;5056886;28;20410;-50
2023/02/06 03:37:10;;;;;;;7.82;2.05;;;20.40;34.90;;;;;;5043704;28;20352;-51
2023/02/06 03:39:36;;;;;;;9.20;2.33;;;20.40;34.90;;;;;;5061573;28;20029;-52
2023/02/06 03:42:04;;;;;;;7.28;2.20;;;20.40;34.90;;;;;;5061561;28;20049;-53
2023/02/06 03:44:34;;;;;;;6.53;2.33;;;20.40;34.90;;;;;;5045421;28;20159;-47
2023/02/06 03:47:01;;;;;;;5.60;2.00;;;20.40;34.90;;;;;;5031598;28;20036;-51
2023/02/06 03:49:29;;;;;;;7.35;2.17;;;20.40;35.00;;;;;;5056996;28;20620;-50
2023/02/06 03:52:04;;;;;;;4.28;1.63;;;20.40;34.90;;;;;;5061331;28;20028;-51
2023/02/06 03:54:30;;;;;;;;;;;20.40;34.90;;;;;;5059033;28;20024;-47
2023/02/06 03:57:02;;;;;;;6.63;2.17;;;20.40;34.90;;;;;;5064602;28;19916;-52
2023/02/06 03:59:30;;;;;;;6.80;1.95;;;20.30;34.80;;;;;;5059884;28;20064;-52
2023/02/06 04:02:01;;;;;;;5.93;1.80;;;20.30;34.90;;;;;;5060021;28;20041;-54
2023/02/06 04:04:35;;;;;;;6.72;2.17;;;20.30;35.50;;;;;;5060644;28;20035;-52
2023/02/06 04:07:14;;;;;;;6.43;1.98;;;20.30;34.80;;;;;;5063182;28;20029;-52
2023/02/06 04:09:41;;;;;;;6.47;1.92;;;20.30;34.80;;;;;;5043312;28;20036;-53
2023/02/06 04:12:08;;;;;;;7.15;2.20;;;20.30;34.80;;;;;;5061554;28;20337;-52
2023/02/06 04:14:35;;;;;;;4.85;1.63;;;20.30;34.90;;;;;;5059746;28;20470;-51
2023/02/06 04:17:03;;;;;;;7.30;2.40;;;20.30;34.80;;;;;;5062771;28;20040;-53
2023/02/06 04:19:29;;;;;;;5.40;2.25;;;20.30;34.90;;;;;;5057072;28;20114;-55
2023/02/06 04:21:54;;;;;;;6.57;2.22;;;20.30;34.80;;;;;;5060553;28;20048;-48
2023/02/06 04:24:20;;;;;;;5.63;1.98;;;20.30;34.80;;;;;;5056011;28;20021;-52
2023/02/06 04:26:46;;;;;;;8.52;1.85;;;20.30;34.80;;;;;;5065782;28;20024;-52
2023/02/06 04:29:12;;;;;;;6.22;2.15;;;20.30;34.80;;;;;;5064844;28;20036;-49
2023/02/06 04:31:39;;;;;;;6.43;2.00;;;20.30;34.80;;;;;;5058660;28;20040;-53
2023/02/06 04:34:05;;;;;;;7.63;1.98;;;20.20;34.80;;;;;;5059837;28;20444;-52
2023/02/06 04:36:31;;;;;;;5.22;1.95;;;20.20;34.80;;;;;;5063299;28;20048;-48
2023/02/06 04:38:57;;;;;;;5.28;2.00;;;20.20;34.80;;;;;;5063700;28;20111;-52
2023/02/06 04:41:23;;;;;;;7.15;2.08;;;20.20;34.80;;;;;;5060585;28;20594;-52
2023/02/06 04:43:48;;;;;;;7.53;2.00;;;20.20;34.70;;;;;;5058381;28;20020;-52
2023/02/06 04:46:14;;;;;;;6.10;1.80;;;20.20;34.70;;;;;;5060146;28;20431;-51
2023/02/06 04:48:40;;;;;;;7.53;2.10;;;20.20;34.70;;;;;;5063570;28;20117;-47
2023/02/06 04:51:06;;;;;;;6.47;1.70;;;20.20;34.80;;;;;;5059831;28;20032;-49
2023/02/06 04:53:32;;;;;;;4.57;1.88;;;20.20;34.70;;;;;;5039998;28;20025;-48
2023/02/06 04:56:07;;;;;;;5.60;1.80;;;20.20;34.70;;;;;;5056972;28;20346;-49
2023/02/06 04:58:33;;;;;;;8.38;2.55;;;20.20;34.70;;;;;;5059178;28;20100;-51
2023/02/06 05:00:59;;;;;;;7.13;2.20;;;20.20;35.40;;;;;;5059897;28;20093;-49
2023/02/06 05:03:25;;;;;;;5.88;1.80;;;20.20;34.80;;;;;;5047106;28;20033;-51
2023/02/06 05:05:52;;;;;;;6.25;1.92;;;20.20;34.80;;;;;;5061970;28;20025;-52
2023/02/06 05:08:18;;;;;;;7.50;2.20;;;20.20;34.80;;;;;;5059794;28;20078;-53
2023/02/06 05:10:44;;;;;;;5.93;2.03;;;20.20;34.70;;;;;;5062795;28;20095;-48
2023/02/06 05:13:10;;;;;;;7.30;2.22;;;20.20;34.70;;;;;;5062066;28;20021;-49
2023/02/06 05:15:37;;;;;;;7.53;2.17;;;20.20;34.80;;;;;;5038771;28;20025;-52
2023/02/06 05:18:04;;;;;;;5.32;2.05;;;20.20;34.80;;;;;;5060404;28;20055;-51
2023/02/06 05:20:30;;;;;;;6.18;1.80;;;20.20;34.80;;;;;;5062915;28;20372;-52
2023/02/06 05:22:56;;;;;;;5.88;2.20;;;20.20;34.80;;;;;;5042962;28;20025;-51
2023/02/06 05:25:22;;;;;;;8.25;2.13;;;20.20;34.80;;;;;;5058727;28;20044;-52
2023/02/06 05:27:48;;;;;;;6.93;2.10;;;20.10;34.70;;;;;;5060340;28;20036;-54
2023/02/06 05:30:14;;;;;;;6.30;1.70;;;20.20;34.80;;;;;;5060587;28;20083;-52
2023/02/06 05:32:40;;;;;;;6.78;1.90;;;20.10;34.70;;;;;;5040641;28;20033;-51
2023/02/06 05:35:06;;;;;;;6.22;1.80;;;20.10;34.70;;;;;;5038934;28;20043;-51
2023/02/06 05:37:32;;;;;;;6.10;1.77;;;20.10;34.70;;;;;;5056342;28;20053;-53
2023/02/06 05:39:58;;;;;;;6.90;2.15;;;20.10;34.70;;;;;;5059378;28;20048;-54
2023/02/06 05:42:24;;;;;;;7.00;2.05;;;20.10;34.80;;;;;;5043643;28;20377;-53
2023/02/06 05:44:50;;;;;;;5.57;1.92;;;20.10;34.90;;;;;;5059572;28;20518;-52
2023/02/06 05:47:15;;;;;;;6.50;2.00;;;20.10;34.90;;;;;;5060114;28;20031;-50
2023/02/06 05:49:42;;;;;;;5.78;2.15;;;20.10;34.90;;;;;;5060863;28;20028;-51
2023/02/06 05:52:09;;;;;;;5.03;1.75;;;20.10;34.90;;;;;;5064488;28;20100;-53
2023/02/06 05:54:35;;;;;;;5.88;1.92;;;20.10;34.90;;;;;;5059285;28;20021;-53
2023/02/06 05:57:02;;;;;;;6.60;1.92;;;20.10;34.90;;;;;;5065545;28;20039;-52
2023/02/06 05:59:28;;;;;;;6.30;1.88;;;20.10;34.90;;;;;;5061896;28;20059;-52
2023/02/06 06:01:53;;;;;;;5.43;1.73;;;20.10;34.90;;;;;;5061639;28;20072;-50
2023/02/06 06:04:19;;;;;;;6.43;2.15;;;20.10;34.90;;;;;;5061458;28;20021;-53
2023/02/06 06:06:45;;;;;;;6.50;1.88;;;20.10;35.10;;;;;;5062618;28;20491;-51
2023/02/06 06:09:11;;;;;;;5.10;1.48;;;20.10;35.10;;;;;;5061060;28;20048;-50
2023/02/06 06:11:37;;;;;;;6.30;1.90;;;20.10;35.10;;;;;;5065261;28;20112;-49
2023/02/06 06:14:03;;;;;;;4.05;1.17;;;20.10;35.10;;;;;;5061024;28;20131;-47
2023/02/06 06:16:29;;;;;;;7.20;2.03;;;20.00;35.00;;;;;;5063236;28;20418;-48
2023/02/06 06:18:55;;;;;;;5.55;1.58;;;20.00;35.00;;;;;;5058575;28;21918;-52
2023/02/06 06:21:22;;;;;;;6.28;1.95;;;20.10;35.00;;;;;;5058024;28;20361;-52
2023/02/06 06:23:47;;;;;;;5.05;1.85;;;20.00;35.00;;;;;;5063656;28;20040;-51
2023/02/06 06:26:14;;;;;;;6.18;1.83;;;20.00;35.00;;;;;;5062494;28;20093;-51
2023/02/06 06:28:39;;;;;;;6.70;1.90;;;20.00;34.90;;;;;;5061743;28;20029;-52
2023/02/06 06:31:10;;;;;;;4.78;1.70;;;20.00;34.90;;;;;;5063070;28;20045;-56
2023/02/06 06:33:37;;;;;;;5.60;1.75;;;20.00;34.90;;;;;;5058169;28;20448;-49
2023/02/06 06:36:04;;;;;;;7.15;2.30;;;20.00;34.90;;;;;;5066898;28;20082;-49
2023/02/06 06:38:30;;;;;;;5.65;1.90;;;20.00;34.90;;;;;;5061274;28;20037;-55
2023/02/06 06:40:55;;;;;;;5.75;1.70;;;20.00;35.00;;;;;;5061098;28;20110;-50
2023/02/06 06:43:21;;;;;;;5.38;1.67;;;20.00;35.00;;;;;;5039034;28;20032;-52
2023/02/06 06:45:47;;;;;;;6.00;1.65;;;20.00;35.00;;;;;;5062129;28;20109;-50
2023/02/06 06:48:13;;;;;;;4.82;1.55;;;20.00;35.00;;;;;;5063592;28;20021;-46
2023/02/06 06:50:39;;;;;;;5.50;2.17;;;20.00;35.00;;;;;;5061266;28;20036;-54
2023/02/06 06:53:04;;;;;;;4.90;1.77;;;20.00;35.00;;;;;;5059736;28;20088;-49
2023/02/06 06:55:30;;;;;;;7.45;1.90;;;20.00;35.00;;;;;;5061760;28;20040;-51
2023/02/06 06:57:56;;;;;;;4.28;1.58;;;20.00;35.00;;;;;;5061185;28;20107;-48
2023/02/06 07:00:22;;;;;;;6.00;1.83;;;19.90;34.90;;;;;;5060888;28;20036;-51
2023/02/06 07:02:48;;;;;;;5.35;1.63;;;20.00;35.00;;;;;;5046472;28;20028;-52
2023/02/06 07:05:14;;;;;;;6.25;1.90;;;20.00;35.00;;;;;;5061980;28;20040;-51
2023/02/06 07:07:40;;;;;;;5.47;1.50;;;19.90;34.90;;;;;;5061849;28;20072;-50
2023/02/06 07:10:07;;;;;;;5.03;1.58;;;19.90;34.90;;;;;;5060858;28;20082;-50
2023/02/06 07:12:33;;;;;;;5.80;1.77;;;19.90;34.90;;;;;;5060843;28;20636;-49
2023/02/06 07:14:59;;;;;;;4.72;1.50;;;19.90;34.90;;;;;;5041583;28;20489;-51
2023/02/06 07:17:25;;;;;;;4.70;1.48;;;19.90;35.00;;;;;;5040360;28;20043;-50
2023/02/06 07:19:51;;;;;;;3.78;1.52;;;19.90;35.00;;;;;;5040728;28;20036;-52
2023/02/06 07:22:19;;;;;;;6.03;2.03;;;19.90;35.00;;;;;;5041683;28;20054;-54
2023/02/06 07:24:45;;;;;;;5.45;1.60;;;19.90;35.00;;;;;;5038203;28;20091;-51
2023/02/06 07:27:11;;;;;;;4.30;1.63;;;19.90;35.00;;;;;;5041085;28;20037;-52
2023/02/06 07:29:37;;;;;;;7.32;1.52;;;19.90;35.00;;;;;;5043195;28;20048;-55
2023/02/06 07:32:04;;;;;;;5.05;1.58;;;19.90;35.20;;;;;;5038334;28;20061;-51
2023/02/06 07:34:30;;;;;;;3.90;1.42;;;19.90;35.30;;;;;;5058827;28;20028;-52
2023/02/06 07:36:58;;;;;;;4.22;1.45;;;19.90;35.30;;;;;;5039356;28;20025;-53
2023/02/06 07:39:25;;;;;;;5.13;1.60;;;19.90;35.30;;;;;;5038049;28;20021;-54
2023/02/06 07:41:51;;;;;;;5.07;1.58;;;19.90;35.20;;;;;;5040744;28;20028;-48
2023/02/06 07:44:19;;;;;;;6.15;1.40;;;19.90;35.20;;;;;;5036424;28;20070;-50
2023/02/06 07:46:45;;;;;;;3.80;1.38;;;19.90;35.20;;;;;;5035894;28;20116;-51
2023/02/06 07:49:13;;;;;;;3.97;1.42;;;19.90;35.20;;;;;;5036088;28;20033;-49
2023/02/06 07:51:40;;;;;;;4.70;1.55;;;19.90;35.20;;;;;;5038942;28;20072;-48
2023/02/06 07:54:06;;;;;;;5.93;1.67;;;19.90;35.30;;;;;;5038213;28;20112;-50
2023/02/06 07:56:32;;;;;;;4.63;1.60;;;19.90;35.30;;;;;;5037425;28;20101;-50
2023/02/06 07:58:58;;;;;;;4.95;1.50;;;19.90;35.30;;;;;;5036554;28;20029;-50
2023/02/06 08:01:24;;;;;;;6.38;1.27;;;19.90;35.30;;;;;;5034820;28;20132;-52
2023/02/06 08:03:53;;;;;;;5.80;1.70;;;19.90;35.40;;;;;;5040542;28;20345;-50
2023/02/06 08:06:21;;;;;;;4.50;1.60;;;19.90;35.40;;;;;;5037586;28;20472;-48
2023/02/06 08:08:48;;;;;;;3.40;1.38;;;19.90;35.40;;;;;;5032050;28;20033;-52
2023/02/06 08:11:19;;;;;;;5.63;1.55;;;19.90;35.50;;;;;;5033164;28;20101;-49
2023/02/06 08:13:46;;;;;;;3.95;1.58;;;19.90;35.60;;;;;;5045331;28;20068;-51
2023/02/06 08:16:22;;;;;;;5.00;1.80;;;19.90;35.80;;;;;;5057478;28;21390;-49
2023/02/06 08:18:49;;;;;;;4.55;1.38;;;19.90;36.00;;;;;;5055249;28;20082;-48
2023/02/06 08:21:19;;;;;;;4.57;1.48;;;19.80;35.90;;;;;;5056389;28;20036;-54
2023/02/06 08:23:46;;;;;;;5.53;2.03;;;19.90;36.10;;;;;;5051137;28;20028;-52
2023/02/06 08:26:15;;;;;;;4.93;1.58;;;19.90;36.10;;;;;;5059834;28;20507;-50
2023/02/06 08:28:42;;;;;;;4.78;1.45;;;19.90;36.00;;;;;;5059552;28;20020;-50
2023/02/06 08:31:22;;;;;;;4.32;1.50;;;20.00;36.10;;;;;;5062186;28;20075;-53
2023/02/06 08:33:48;;;;;;;5.43;1.40;;;20.00;36.00;;;;;;5057670;28;20017;-53
2023/02/06 08:36:16;;;;;;;3.28;1.30;;;20.00;35.90;;;;;;5057543;28;20452;-51
2023/02/06 08:38:42;;;;;;;4.13;1.35;;;20.10;35.90;;;;;;5057997;28;20351;-49
2023/02/06 08:41:23;;;;;;;4.68;1.80;;;20.10;35.80;;;;;;5052961;28;20151;-49
2023/02/06 08:43:55;;;;;;;5.82;1.35;;;20.20;35.80;;;;;;5063382;28;20047;-55
2023/02/06 08:46:23;;;;;;;4.97;1.60;;;20.20;35.80;;;;;;5061031;28;20029;-54
2023/02/06 08:48:57;;;;;;;6.00;1.60;;;20.30;35.70;;;;;;5066707;28;20067;-51
2023/02/06 08:51:26;;;;;;;5.05;1.42;;;20.30;35.60;;;;;;5042306;28;20067;-50
2023/02/06 08:53:58;;;;;;;5.72;1.38;;;20.40;35.60;;;;;;5033323;28;20400;-52
2023/02/06 08:56:25;;;;;;;4.50;1.45;;;20.40;35.60;;;;;;5056405;28;20040;-54
2023/02/06 08:58:52;;;;;;;5.55;1.55;;;20.40;35.50;;;;;;5059592;28;20364;-52
2023/02/06 09:01:19;;;;;;;4.82;1.40;;;20.50;35.40;;;;;;5051912;28;20056;-52
2023/02/06 09:03:45;;;;;;;5.88;1.80;;;20.50;35.40;;;;;;5040972;28;20448;-55
2023/02/06 09:06:13;;;;;;;5.70;1.83;;;20.50;35.30;;;;;;5056669;28;20029;-50
2023/02/06 09:08:40;;;;;;;4.28;1.67;;;20.60;35.30;;;;;;5055810;28;20056;-52
2023/02/06 09:11:17;;;;;;;6.22;2.00;;;20.60;35.20;;;;;;5056720;28;20020;-55
2023/02/06 09:13:46;;;;;;;5.63;1.88;;;20.70;35.50;;;;;;5059721;28;20057;-52
2023/02/06 09:16:13;;;;;;;5.20;1.77;;;20.70;35.10;;;;;;5039320;28;20047;-51
2023/02/06 09:18:40;;;;;;;6.60;1.77;;;20.80;35.10;;;;;;5055562;28;20032;-52
2023/02/06 09:21:14;;;;;;;4.53;1.40;;;20.70;35.00;;;;;;5052785;28;20041;-52
2023/02/06 09:23:46;;;;;;;4.03;1.70;;;20.80;35.00;;;;;;5064183;28;20163;-50
2023/02/06 09:26:14;;;;;;;5.15;1.42;;;20.80;35.00;;;;;;5039848;28;20033;-49
2023/02/06 09:28:40;;;;;;;4.47;1.50;;;20.80;34.90;;;;;;5056930;28;20033;-50
2023/02/06 09:31:08;;;;;;;4.90;1.58;;;20.90;35.00;;;;;;5063123;28;20039;-59
2023/02/06 09:33:35;;;;;;;4.50;1.50;;;20.90;34.90;;;;;;5063948;28;20113;-52
2023/02/06 09:36:08;;;;;;;5.30;1.42;;;20.90;34.90;;;;;;5051010;28;20059;-55
2023/02/06 09:38:35;;;;;;;6.07;1.50;;;20.90;34.80;;;;;;5048044;28;20020;-51
2023/02/06 09:41:04;;;;;;;5.88;1.85;;;20.90;34.70;;;;;;5065042;28;20441;-54
2023/02/06 09:43:31;;;;;;;5.47;1.88;;;20.90;34.60;;;;;;5067420;28;20111;-51
2023/02/06 09:46:01;;;;;;;5.15;1.42;;;20.90;34.60;;;;;;5067612;28;20119;-54
2023/02/06 09:48:35;;;;;;;4.85;1.75;;;21.00;34.60;;;;;;5064849;28;20033;-51
2023/02/06 09:51:07;;;;;;;5.88;1.65;;;20.90;34.60;;;;;;5068360;28;20037;-54
2023/02/06 09:53:41;;;;;;;5.25;1.70;;;20.90;34.60;;;;;;5065550;28;20048;-54
2023/02/06 09:56:29;;;;;;;;;;;21.00;34.70;;;;;;5065790;28;20069;-52
2023/02/06 09:59:28;;;;;;;6.57;2.20;;;20.90;34.60;;;;;;5067068;28;19909;-51
2023/02/06 10:02:14;;;;;;;5.15;1.92;;;20.90;34.60;;;;;;5066704;28;20048;-51
2023/02/06 10:05:07;;;;;;;4.38;1.55;;;20.90;34.70;;;;;;5068295;28;20480;-54
2023/02/06 10:07:54;;;;;;;6.70;1.88;;;20.90;34.70;;;;;;5063442;28;20494;-50
2023/02/06 10:10:35;;;;;;;5.47;1.77;;;21.00;34.80;;;;;;5049319;28;20040;-54
2023/02/06 10:13:09;;;;;;;6.25;2.28;;;20.90;34.80;;;;;;5064003;28;20036;-49
2023/02/06 10:15:45;;;;;;;5.85;2.35;;;20.90;34.80;;;;;;5063143;28;20039;-51
2023/02/06 10:18:38;;;;;;;5.43;1.70;;;20.90;34.90;;;;;;5063463;28;20025;-54
2023/02/06 10:21:19;;;;;;;4.38;1.95;;;21.00;34.90;;;;;;5066956;28;20029;-52
2023/02/06 10:23:54;;;;;;;4.18;1.48;;;21.00;34.90;;;;;;5064334;28;20033;-53
2023/02/06 10:26:21;;;;;;;6.28;2.17;;;21.00;34.90;;;;;;5065974;28;20452;-52
2023/02/06 10:28:57;;;;;;;5.55;1.98;;;20.90;34.90;;;;;;5066999;28;20131;-51
2023/02/06 10:31:23;;;;;;;3.92;1.88;;;21.00;34.90;;;;;;5063177;28;20039;-49
2023/02/06 10:34:24;;;;;;;5.63;1.75;;;21.00;34.90;;;;;;5065676;28;20025;-49
2023/02/06 10:37:18;;;;;;;4.68;1.85;;;21.00;34.90;;;;;;5060703;28;20098;-51
2023/02/06 10:40:00;;;;;;;5.10;1.85;;;21.00;34.90;;;;;;5065868;28;20033;-55
2023/02/06 10:42:48;;;;;;;6.78;1.90;;;21.00;34.90;;;;;;5064301;28;20355;-54
2023/02/06 10:45:13;;;;;;;4.72;1.50;;;21.00;34.90;;;;;;5065886;28;20033;-49
2023/02/06 10:47:53;;;;;;;5.63;1.90;;;21.00;34.90;;;;;;5067317;28;20035;-52
2023/02/06 10:50:38;;;;;;;5.80;1.85;;;21.00;34.90;;;;;;5066262;28;20075;-52
2023/02/06 10:53:36;;;;;;;5.63;1.63;;;21.00;34.90;;;;;;5064642;28;20025;-54
2023/02/06 10:56:09;;;;;;;5.38;1.55;;;21.00;34.90;;;;;;5048797;28;20123;-49
2023/02/06 10:58:41;;;;;;;6.97;1.92;;;21.10;34.90;;;;;;5043583;28;20040;-50
2023/02/06 11:01:10;;;;;;;5.63;1.70;;;21.10;34.90;;;;;;5065882;28;20375;-52
2023/02/06 11:03:44;;;;;;;6.30;1.42;;;21.10;34.90;;;;;;5067097;28;20529;-52
2023/02/06 11:06:15;;;;;;;4.35;1.58;;;21.00;34.90;;;;;;5064737;28;20029;-53
2023/02/06 11:08:44;;;;;;;4.90;1.30;;;21.00;34.90;;;;;;5063121;28;20032;-51
2023/02/06 11:11:19;;;;;;;5.18;1.95;;;21.10;35.00;;;;;;5045591;28;20036;-49
2023/02/06 11:13:55;;;;;;;5.80;1.67;;;21.10;34.90;;;;;;5066149;28;20123;-54
2023/02/06 11:16:27;;;;;;;3.70;1.50;;;21.10;34.90;;;;;;5063337;28;20020;-51
2023/02/06 11:18:55;;;;;;;5.07;1.63;;;21.10;34.90;;;;;;5064782;28;20107;-51
2023/02/06 11:21:39;;;;;;;5.00;1.88;;;21.10;34.90;;;;;;5066891;28;20398;-54
2023/02/06 11:24:14;;;;;;;5.20;1.50;;;21.10;34.90;;;;;;5061496;28;20033;-51
2023/02/06 11:26:54;;;;;;;6.05;1.70;;;21.10;34.80;;;;;;5063269;28;20033;-54
2023/02/06 11:29:38;;;;;;;6.60;1.65;;;21.00;34.80;;;;;;5065991;28;20051;-54
2023/02/06 11:32:06;;;;;;;4.55;1.85;;;21.00;34.90;;;;;;5063231;28;20057;-53
2023/02/06 11:34:52;;;;;;;4.95;1.63;;;21.00;34.70;;;;;;5062849;28;20111;-48
2023/02/06 11:37:40;;;;;;;5.65;1.60;;;21.00;34.70;;;;;;5062569;28;20059;-52
2023/02/06 11:40:18;;;;;;;5.53;1.75;;;21.00;34.60;;;;;;5063932;28;20037;-52
2023/02/06 11:42:51;;;;;;;4.80;1.52;;;21.00;34.50;;;;;;5062641;28;20033;-51
2023/02/06 11:45:30;;;;;;;5.60;1.67;;;21.00;34.40;;;;;;5062583;28;20064;-55
2023/02/06 11:47:56;;;;;;;5.85;1.40;;;21.10;34.50;;;;;;5061578;28;20452;-52
2023/02/06 11:50:34;;;;;;;4.72;1.30;;;21.10;34.40;;;;;;5065259;28;20021;-55
2023/02/06 11:53:17;;;;;;;5.00;1.67;;;21.00;34.30;;;;;;5047718;28;20082;-49
2023/02/06 11:55:45;;;;;;;4.97;1.63;;;21.00;34.20;;;;;;5065470;28;20037;-52
2023/02/06 11:58:11;;;;;;;6.07;1.70;;;21.00;34.10;;;;;;5063664;28;20025;-53
2023/02/06 12:00:58;;;;;;;5.28;1.55;;;21.10;34.10;;;;;;5064071;28;20034;-51
2023/02/06 12:03:36;;;;;;;4.68;1.30;;;21.10;34.10;;;;;;5064486;28;20044;-53
2023/02/06 12:06:34;;;;;;;4.22;1.38;;;21.00;33.90;;;;;;5042727;28;20427;-54
2023/02/06 12:09:09;;;;;;;5.75;1.48;;;21.00;33.90;;;;;;5028162;28;20082;-52
2023/02/06 12:12:00;;;;;;;4.20;1.75;;;21.00;34.00;;;;;;5055941;28;20063;-53
2023/02/06 12:14:38;;;;;;;4.70;1.35;;;21.00;34.20;;;;;;5060365;28;20114;-53
2023/02/06 12:17:18;;;;;;;5.75;1.40;;;21.00;34.20;;;;;;5038753;28;20120;-54
2023/02/06 12:19:59;;;;;;;4.20;1.38;;;21.10;34.30;;;;;;5058209;28;20021;-53
2023/02/06 12:22:25;;;;;;;6.63;1.90;;;21.00;34.20;;;;;;5057844;28;20353;-53
2023/02/06 12:24:55;;;;;;;5.57;1.55;;;21.00;34.10;;;;;;5039682;28;20029;-51
2023/02/06 12:27:26;;;;;;;5.88;1.88;;;21.10;34.10;;;;;;5062238;28;20115;-54
2023/02/06 12:30:28;;;;;;;5.80;1.88;;;21.00;34.00;;;;;;5037316;28;20334;-53
2023/02/06 12:33:12;;;;;;;5.82;1.73;;;21.00;33.90;;;;;;5062858;28;20454;-52
2023/02/06 12:35:48;;;;;;;4.35;1.17;;;21.00;33.80;;;;;;5061955;28;20029;-53
2023/02/06 12:38:47;;;;;;;5.07;1.40;;;21.00;33.70;;;;;;5065096;28;20068;-53
2023/02/06 12:41:27;;;;;;;3.17;1.23;;;21.00;33.70;;;;;;5065759;28;20098;-54
2023/02/06 12:44:19;;;;;;;5.75;1.38;;;21.00;33.60;;;;;;5044057;28;20021;-51
2023/02/06 12:46:50;;;;;;;3.90;1.38;;;21.00;33.50;;;;;;5063812;28;20025;-53
2023/02/06 12:49:27;;;;;;;5.88;1.70;;;21.00;33.50;;;;;;5055346;28;20025;-53
2023/02/06 12:52:03;;;;;;;4.10;1.30;;;21.00;33.50;;;;;;5060010;28;20114;-55
2023/02/06 12:54:36;;;;;;;3.95;1.10;;;21.00;33.40;;;;;;5058749;28;20029;-60
2023/02/06 12:57:23;;;;;;;4.35;1.48;;;21.00;33.40;;;;;;5055490;28;20163;-51
2023/02/06 13:00:21;;;;;;;5.43;1.02;;;21.00;33.40;;;;;;5060672;28;20103;-52
2023/02/06 13:03:35;;;;;;;7.10;1.55;;;21.00;33.40;;;;;;5015982;28;20053;-53
2023/02/06 13:06:20;;;;;;;3.55;1.15;;;21.00;33.40;;;;;;5023927;28;20040;-54
2023/02/06 13:09:01;;;;;;;5.20;1.48;;;21.00;33.30;;;;;;5060054;28;20124;-54
2023/02/06 13:11:31;;;;;;;4.85;1.60;;;21.00;33.20;;;;;;5058214;28;20419;-53